Time;durP1;ratioP1;P1;durP2;ratioP2;P2;SDS_P1;SDS_P2;PMS_P1;PMS_P2;Temp;Humidity;BMP_temperature;BMP_pressure;BME280_temperature;BME280_humidity;BME280_pressure;Samples;Min_cycle;Max_cycle;Signal;HPM_P1;HPM_P2
2021/09/09 00:00:39;;;;;;;13.02;7.65;;;17.90;99.90;;;;;;2090496;28;20029;-71
2021/09/09 00:01:40;;;;;;;11.82;7.72;;;18.00;99.90;;;;;;2092783;28;20083;-70
2021/09/09 00:02:40;;;;;;;14.75;7.88;;;17.90;99.90;;;;;;2092226;28;21071;-71
2021/09/09 00:03:41;;;;;;;13.52;8.02;;;17.90;99.90;;;;;;2090221;28;20705;-73
2021/09/09 00:04:42;;;;;;;11.27;7.88;;;17.90;99.90;;;;;;2091431;28;20020;-72
2021/09/09 00:05:44;;;;;;;13.50;8.43;;;17.90;99.90;;;;;;2093214;28;20523;-73
2021/09/09 00:06:44;;;;;;;;;;;17.90;99.90;;;;;;2092212;28;20700;-71
2021/09/09 00:07:45;;;;;;;12.23;8.07;;;18.00;99.90;;;;;;2093006;28;19905;-72
2021/09/09 00:08:46;;;;;;;12.43;7.63;;;18.00;99.90;;;;;;2095931;28;20028;-72
2021/09/09 00:09:46;;;;;;;10.93;7.43;;;18.00;99.90;;;;;;2094894;28;20148;-72
2021/09/09 00:10:47;;;;;;;13.75;7.80;;;18.00;99.90;;;;;;2088262;28;20637;-72
2021/09/09 00:11:48;;;;;;;11.95;7.97;;;18.00;99.90;;;;;;2091369;28;20018;-72
2021/09/09 00:12:49;;;;;;;12.65;7.88;;;18.00;99.90;;;;;;2087166;28;20103;-72
2021/09/09 00:13:49;;;;;;;13.20;8.45;;;18.00;99.90;;;;;;2082534;28;20500;-72
2021/09/09 00:14:50;;;;;;;19.90;9.32;;;17.90;99.90;;;;;;2088752;28;20033;-72
2021/09/09 00:15:51;;;;;;;11.32;8.00;;;17.90;99.90;;;;;;2090219;28;20025;-72
2021/09/09 00:16:52;;;;;;;14.57;8.38;;;17.90;99.90;;;;;;2090209;28;20056;-72
2021/09/09 00:17:52;;;;;;;13.38;8.43;;;17.90;99.90;;;;;;2089979;28;20017;-72
2021/09/09 00:18:53;;;;;;;13.65;7.68;;;17.90;99.90;;;;;;2088132;28;20033;-72
2021/09/09 00:19:54;;;;;;;13.75;7.95;;;17.90;99.90;;;;;;2089099;28;20025;-73
2021/09/09 00:20:55;;;;;;;11.30;7.90;;;17.90;99.90;;;;;;2089288;28;20029;-72
2021/09/09 00:21:55;;;;;;;20.10;8.98;;;17.90;99.90;;;;;;2086872;28;20535;-72
2021/09/09 00:22:56;;;;;;;13.75;8.50;;;17.90;99.90;;;;;;2091012;28;20610;-73
2021/09/09 00:23:57;;;;;;;14.27;8.70;;;17.90;99.90;;;;;;2087771;28;20072;-72
2021/09/09 00:24:58;;;;;;;14.20;9.10;;;17.90;99.90;;;;;;2089560;28;20017;-73
2021/09/09 00:25:59;;;;;;;16.73;8.82;;;17.90;99.90;;;;;;2088409;28;20028;-71
2021/09/09 00:27:00;;;;;;;14.88;9.40;;;17.90;99.90;;;;;;2087134;28;20021;-73
2021/09/09 00:28:01;;;;;;;14.73;9.38;;;17.90;99.90;;;;;;2090985;28;20031;-73
2021/09/09 00:29:01;;;;;;;15.02;9.57;;;17.90;99.90;;;;;;2087752;28;20032;-72
2021/09/09 00:30:03;;;;;;;12.02;8.90;;;17.90;99.90;;;;;;2089442;28;20017;-73
2021/09/09 00:31:04;;;;;;;14.70;8.35;;;17.90;99.90;;;;;;2088084;28;20032;-72
2021/09/09 00:32:05;;;;;;;14.60;8.95;;;17.90;99.90;;;;;;2081450;28;20048;-73
2021/09/09 00:33:08;;;;;;;17.20;9.27;;;17.90;99.90;;;;;;2081652;28;20072;-72
2021/09/09 00:34:09;;;;;;;13.65;8.95;;;17.90;99.90;;;;;;2078571;28;20082;-73
2021/09/09 00:35:10;;;;;;;14.75;8.73;;;17.90;99.90;;;;;;2085749;28;20057;-73
2021/09/09 00:36:11;;;;;;;16.38;9.00;;;17.90;99.90;;;;;;2084744;28;20045;-73
2021/09/09 00:37:12;;;;;;;14.68;8.18;;;17.90;99.90;;;;;;2081977;28;20053;-73
2021/09/09 00:38:13;;;;;;;18.42;9.18;;;17.90;99.90;;;;;;2082446;28;20048;-73
2021/09/09 00:39:14;;;;;;;18.87;8.43;;;17.90;99.90;;;;;;2087358;28;20029;-74
2021/09/09 00:40:14;;;;;;;13.45;8.27;;;18.00;99.90;;;;;;2081435;28;20268;-73
2021/09/09 00:41:15;;;;;;;14.95;8.57;;;18.00;99.90;;;;;;2084367;28;20060;-73
2021/09/09 00:42:16;;;;;;;13.30;7.72;;;18.00;99.90;;;;;;2086229;28;20035;-72
2021/09/09 00:43:17;;;;;;;14.05;7.63;;;18.00;99.90;;;;;;2082571;28;20100;-72
2021/09/09 00:44:25;;;;;;;12.32;7.50;;;18.00;99.90;;;;;;2088997;28;20025;-72
2021/09/09 00:45:26;;;;;;;14.07;7.82;;;18.10;99.90;;;;;;2090155;28;20024;-72
2021/09/09 00:46:27;;;;;;;14.60;8.25;;;18.10;99.90;;;;;;2090802;28;20024;-72
2021/09/09 00:47:28;;;;;;;12.27;8.02;;;18.10;99.90;;;;;;2090073;28;20053;-71
2021/09/09 00:48:29;;;;;;;16.65;8.73;;;18.10;99.90;;;;;;2087396;28;20028;-72
2021/09/09 00:49:31;;;;;;;14.23;7.88;;;18.10;99.90;;;;;;2085279;28;20017;-71
2021/09/09 00:50:31;;;;;;;;;;;18.10;99.90;;;;;;2088366;28;20021;-72
2021/09/09 00:51:32;;;;;;;12.80;8.13;;;18.10;99.90;;;;;;2081752;28;19960;-72
2021/09/09 00:52:33;;;;;;;15.18;7.80;;;18.10;99.90;;;;;;2094641;28;20024;-72
2021/09/09 00:53:34;;;;;;;15.10;7.97;;;18.10;99.90;;;;;;2096693;28;20033;-72
2021/09/09 00:54:35;;;;;;;17.02;8.73;;;18.10;99.90;;;;;;2088601;28;20029;-73
2021/09/09 00:55:36;;;;;;;14.65;7.65;;;18.10;99.90;;;;;;2089758;28;20025;-72
2021/09/09 00:56:37;;;;;;;12.95;8.35;;;18.10;99.90;;;;;;2090052;28;20067;-71
2021/09/09 00:57:37;;;;;;;16.65;8.60;;;18.10;99.90;;;;;;2085502;28;20022;-73
2021/09/09 00:58:42;;;;;;;14.68;8.00;;;18.10;99.90;;;;;;2082435;28;20029;-73
2021/09/09 00:59:47;;;;;;;10.98;7.20;;;18.10;99.90;;;;;;2089606;28;20028;-73
2021/09/09 01:00:48;;;;;;;10.73;7.10;;;18.10;99.90;;;;;;2087557;28;20025;-72
2021/09/09 01:01:49;;;;;;;12.13;6.47;;;18.10;99.90;;;;;;2082269;28;20045;-74
2021/09/09 01:02:50;;;;;;;11.48;6.18;;;18.10;99.90;;;;;;2082195;28;20025;-73
2021/09/09 01:03:51;;;;;;;11.45;6.13;;;18.10;99.90;;;;;;2088693;28;20020;-73
2021/09/09 01:04:53;;;;;;;12.23;5.70;;;18.10;99.90;;;;;;2089618;28;20028;-74
2021/09/09 01:05:54;;;;;;;10.98;5.63;;;18.10;99.90;;;;;;2085001;28;20029;-72
2021/09/09 01:06:56;;;;;;;9.50;5.70;;;18.10;99.90;;;;;;2090687;28;20641;-73
2021/09/09 01:07:57;;;;;;;12.15;5.38;;;18.10;99.90;;;;;;2090216;28;20016;-71
2021/09/09 01:08:58;;;;;;;7.03;5.18;;;18.10;99.90;;;;;;2089457;28;20021;-73
2021/09/09 01:09:59;;;;;;;9.73;5.57;;;18.10;99.90;;;;;;2090009;28;20013;-73
2021/09/09 01:11:00;;;;;;;10.43;5.63;;;18.10;99.90;;;;;;2090453;28;20033;-72
2021/09/09 01:12:01;;;;;;;10.70;5.50;;;18.20;99.90;;;;;;2088207;28;20028;-72
2021/09/09 01:13:06;;;;;;;8.27;5.30;;;18.20;99.90;;;;;;2080880;28;20020;-73
2021/09/09 01:14:13;;;;;;;19.98;6.45;;;18.20;99.90;;;;;;2083208;28;20022;-72
2021/09/09 01:15:14;;;;;;;9.70;5.43;;;18.20;99.90;;;;;;2090484;28;20021;-72
2021/09/09 01:16:15;;;;;;;10.88;5.10;;;18.20;99.90;;;;;;2085279;28;20022;-73
2021/09/09 01:17:15;;;;;;;10.45;5.20;;;18.20;99.90;;;;;;2081564;28;20025;-72
2021/09/09 01:18:16;;;;;;;10.80;5.50;;;18.20;99.90;;;;;;2081878;28;20488;-72
2021/09/09 01:19:18;;;;;;;7.07;5.15;;;18.20;99.90;;;;;;2082537;28;20025;-73
2021/09/09 01:20:18;;;;;;;15.88;6.35;;;18.20;99.90;;;;;;2089501;28;20021;-72
2021/09/09 01:21:19;;;;;;;8.70;4.95;;;18.20;99.90;;;;;;2083918;28;20534;-73
2021/09/09 01:22:20;;;;;;;10.02;5.20;;;18.20;99.90;;;;;;2087260;28;20474;-73
2021/09/09 01:23:21;;;;;;;9.48;5.55;;;18.20;99.90;;;;;;2086114;28;20581;-73
2021/09/09 01:24:23;;;;;;;12.68;5.70;;;18.20;99.90;;;;;;2089896;28;20100;-72
2021/09/09 01:25:23;;;;;;;16.67;6.25;;;18.20;99.90;;;;;;2089009;28;20127;-72
2021/09/09 01:26:27;;;;;;;10.18;5.78;;;18.20;99.90;;;;;;2089727;28;20048;-71
2021/09/09 01:27:28;;;;;;;9.23;5.82;;;18.20;99.90;;;;;;2081403;28;20440;-72
2021/09/09 01:28:28;;;;;;;10.18;5.15;;;18.20;99.90;;;;;;2073056;28;20030;-73
2021/09/09 01:29:40;;;;;;;12.50;5.60;;;18.20;99.90;;;;;;2097974;28;20119;-71
2021/09/09 01:30:40;;;;;;;10.13;5.13;;;18.20;99.90;;;;;;2096198;28;20024;-72
2021/09/09 01:31:41;;;;;;;10.63;5.53;;;18.20;99.90;;;;;;2082856;28;20026;-73
2021/09/09 01:32:42;;;;;;;10.00;5.50;;;18.20;99.90;;;;;;2090384;28;20539;-72
2021/09/09 01:33:43;;;;;;;10.65;4.88;;;18.20;99.90;;;;;;2086385;28;20709;-72
2021/09/09 01:34:44;;;;;;;11.68;5.20;;;18.20;99.90;;;;;;2082184;28;20049;-74
2021/09/09 01:35:44;;;;;;;13.55;4.82;;;18.20;99.90;;;;;;2088154;28;20025;-72
2021/09/09 01:36:46;;;;;;;8.93;5.07;;;18.20;99.90;;;;;;2089353;28;20074;-72
2021/09/09 01:37:47;;;;;;;9.45;5.30;;;18.30;99.90;;;;;;2087505;28;20033;-72
2021/09/09 01:38:47;;;;;;;15.25;5.70;;;18.30;99.90;;;;;;2084996;28;20611;-72
2021/09/09 01:39:48;;;;;;;12.77;5.53;;;18.30;99.90;;;;;;2081637;28;20033;-73
2021/09/09 01:40:49;;;;;;;12.52;5.28;;;18.30;99.90;;;;;;2087890;28;20036;-72
2021/09/09 01:41:51;;;;;;;9.30;5.35;;;18.40;99.90;;;;;;2089323;28;20028;-73
2021/09/09 01:42:52;;;;;;;14.35;5.45;;;18.40;99.90;;;;;;2089764;28;20789;-72
2021/09/09 01:43:52;;;;;;;12.52;5.40;;;18.30;99.90;;;;;;2089596;28;20017;-71
2021/09/09 01:44:53;;;;;;;10.13;5.60;;;18.40;99.90;;;;;;2089357;28;20040;-72
2021/09/09 01:45:54;;;;;;;11.10;5.30;;;18.40;99.90;;;;;;2087447;28;20483;-73
2021/09/09 01:46:54;;;;;;;11.70;6.03;;;18.40;99.90;;;;;;2088119;28;20450;-73
2021/09/09 01:47:55;;;;;;;12.88;6.63;;;18.40;99.90;;;;;;2081396;28;20026;-74
2021/09/09 01:48:57;;;;;;;10.57;5.40;;;18.30;99.90;;;;;;2084434;28;20049;-72
2021/09/09 01:49:58;;;;;;;10.73;5.80;;;18.30;99.90;;;;;;2090195;28;20335;-72
2021/09/09 01:50:59;;;;;;;11.80;5.90;;;18.30;99.90;;;;;;2083678;28;20049;-71
2021/09/09 01:52:00;;;;;;;9.32;5.07;;;18.30;99.90;;;;;;2082324;28;20055;-72
2021/09/09 01:53:00;;;;;;;12.10;5.18;;;18.30;99.90;;;;;;2088114;28;20029;-72
2021/09/09 01:54:01;;;;;;;12.57;5.35;;;18.30;99.90;;;;;;2080818;28;20016;-72
2021/09/09 01:55:02;;;;;;;9.32;5.05;;;18.30;99.90;;;;;;2089363;28;20507;-72
2021/09/09 01:56:03;;;;;;;9.30;5.17;;;18.30;99.90;;;;;;2087741;28;20097;-71
2021/09/09 01:57:04;;;;;;;8.40;5.10;;;18.20;99.90;;;;;;2089543;28;20895;-72
2021/09/09 01:58:05;;;;;;;9.18;5.32;;;18.20;99.90;;;;;;2082022;28;20775;-73
2021/09/09 01:59:06;;;;;;;9.20;5.07;;;18.20;99.90;;;;;;2081714;28;20022;-72
2021/09/09 02:00:07;;;;;;;10.70;5.43;;;18.20;99.90;;;;;;2081895;28;20517;-71
2021/09/09 02:01:08;;;;;;;9.25;5.25;;;18.20;99.90;;;;;;2080646;28;20029;-72
2021/09/09 02:02:09;;;;;;;7.00;4.90;;;18.20;99.90;;;;;;2081724;28;20030;-72
2021/09/09 02:03:10;;;;;;;13.60;5.63;;;18.20;99.90;;;;;;2084866;28;20123;-72
2021/09/09 02:04:10;;;;;;;7.85;4.80;;;18.20;99.90;;;;;;2086569;28;20025;-72
2021/09/09 02:05:12;;;;;;;12.35;5.28;;;18.30;99.90;;;;;;2081757;28;20022;-71
2021/09/09 02:06:13;;;;;;;12.07;5.30;;;18.30;99.90;;;;;;2083320;28;20017;-72
2021/09/09 02:07:14;;;;;;;9.63;5.30;;;18.30;99.90;;;;;;2090019;28;20025;-72
2021/09/09 02:08:14;;;;;;;13.85;5.32;;;18.30;99.90;;;;;;2085796;28;20021;-73
2021/09/09 02:09:15;;;;;;;11.95;4.75;;;18.30;99.90;;;;;;2080334;28;20022;-72
2021/09/09 02:10:19;;;;;;;9.10;5.03;;;18.30;99.90;;;;;;2088529;28;20036;-71
2021/09/09 02:11:21;;;;;;;13.63;5.13;;;18.30;99.90;;;;;;2088700;28;20397;-71
2021/09/09 02:12:21;;;;;;;11.38;5.43;;;18.30;99.90;;;;;;2089143;28;20088;-73
2021/09/09 02:13:22;;;;;;;13.02;6.03;;;18.30;99.90;;;;;;2081295;28;20040;-73
2021/09/09 02:14:23;;;;;;;12.18;5.47;;;18.30;99.90;;;;;;2080250;28;20028;-71
2021/09/09 02:15:23;;;;;;;11.68;6.28;;;18.30;99.90;;;;;;2085786;28;20031;-70
2021/09/09 02:16:24;;;;;;;12.57;5.70;;;18.30;99.90;;;;;;2087405;28;20523;-71
2021/09/09 02:17:25;;;;;;;12.68;5.65;;;18.40;99.90;;;;;;2088637;28;20660;-71
2021/09/09 02:18:26;;;;;;;15.75;5.70;;;18.40;99.90;;;;;;2080431;28;20060;-74
2021/09/09 02:19:27;;;;;;;9.53;5.33;;;18.40;99.90;;;;;;2082631;28;20112;-73
2021/09/09 02:20:29;;;;;;;12.98;5.43;;;18.40;99.90;;;;;;2085470;28;20290;-71
2021/09/09 02:21:30;;;;;;;11.45;5.20;;;18.40;99.90;;;;;;2085677;28;20029;-72
2021/09/09 02:22:30;;;;;;;14.07;6.35;;;18.40;99.90;;;;;;2087806;28;20020;-72
2021/09/09 02:23:31;;;;;;;11.90;5.70;;;18.40;99.90;;;;;;2092498;28;20051;-71
2021/09/09 02:24:32;;;;;;;12.10;5.80;;;18.40;99.90;;;;;;2088391;28;20100;-71
2021/09/09 02:25:32;;;;;;;11.85;5.90;;;18.50;99.90;;;;;;2088386;28;20024;-71
2021/09/09 02:26:33;;;;;;;16.60;6.35;;;18.50;99.90;;;;;;2087863;28;20021;-74
2021/09/09 02:27:34;;;;;;;19.27;6.20;;;18.40;99.90;;;;;;2088416;28;20016;-71
2021/09/09 02:28:35;;;;;;;13.63;5.75;;;18.50;99.90;;;;;;2088219;28;20021;-71
2021/09/09 02:29:35;;;;;;;13.20;5.45;;;18.50;99.90;;;;;;2085413;28;20028;-73
2021/09/09 02:30:36;;;;;;;12.20;5.30;;;18.50;99.90;;;;;;2089129;28;20503;-73
2021/09/09 02:31:37;;;;;;;12.38;6.00;;;18.50;99.90;;;;;;2088060;28;20475;-73
2021/09/09 02:32:38;;;;;;;11.75;6.10;;;18.50;99.90;;;;;;2081199;28;20110;-73
2021/09/09 02:33:39;;;;;;;12.90;5.82;;;18.50;99.90;;;;;;2089247;28;20106;-72
2021/09/09 02:34:40;;;;;;;10.95;6.25;;;18.50;99.90;;;;;;2089394;28;20432;-75
2021/09/09 02:35:40;;;;;;;10.95;5.95;;;18.50;99.90;;;;;;2086317;28;20032;-76
2021/09/09 02:36:41;;;;;;;12.43;6.35;;;18.50;99.90;;;;;;2078838;28;20034;-74
2021/09/09 02:37:42;;;;;;;15.77;5.80;;;18.50;99.90;;;;;;2087056;28;20017;-72
2021/09/09 02:38:42;;;;;;;12.63;6.00;;;18.50;99.90;;;;;;2084205;28;20100;-73
2021/09/09 02:39:46;;;;;;;12.30;5.97;;;18.50;99.90;;;;;;2089910;28;20025;-73
2021/09/09 02:40:47;;;;;;;11.32;5.70;;;18.50;99.90;;;;;;2082729;28;20076;-73
2021/09/09 02:41:48;;;;;;;13.10;6.07;;;18.40;99.90;;;;;;2080953;28;20750;-73
2021/09/09 02:42:49;;;;;;;10.77;5.63;;;18.40;99.90;;;;;;2089990;28;20044;-73
2021/09/09 02:43:49;;;;;;;11.82;5.72;;;18.40;99.90;;;;;;2089575;28;20084;-73
2021/09/09 02:44:50;;;;;;;18.30;5.50;;;18.40;99.90;;;;;;2085989;28;20104;-72
2021/09/09 02:45:51;;;;;;;13.35;5.88;;;18.40;99.90;;;;;;2083894;28;20092;-72
2021/09/09 02:46:51;;;;;;;7.78;5.35;;;18.40;99.90;;;;;;2085270;28;20102;-73
2021/09/09 02:47:52;;;;;;;10.63;6.05;;;18.40;99.90;;;;;;2072856;28;20113;-72
2021/09/09 02:48:53;;;;;;;13.27;5.82;;;18.30;99.90;;;;;;2073506;28;20029;-73
2021/09/09 02:49:53;;;;;;;15.30;5.68;;;18.30;99.90;;;;;;2080633;28;20582;-72
2021/09/09 02:50:54;;;;;;;13.95;6.38;;;18.40;99.90;;;;;;2081545;28;20447;-71
2021/09/09 02:51:55;;;;;;;15.15;5.72;;;18.40;99.90;;;;;;2081434;28;20028;-72
2021/09/09 02:52:56;;;;;;;10.57;5.95;;;18.40;99.90;;;;;;2081296;28;20022;-73
2021/09/09 02:53:56;;;;;;;13.32;5.65;;;18.40;99.90;;;;;;2082248;28;20025;-72
2021/09/09 02:54:57;;;;;;;12.75;6.43;;;18.40;99.90;;;;;;2088154;28;20504;-72
2021/09/09 02:55:58;;;;;;;13.77;6.05;;;18.40;99.90;;;;;;2087831;28;20048;-73
2021/09/09 02:56:59;;;;;;;12.48;6.07;;;18.40;99.90;;;;;;2087882;28;20488;-73
2021/09/09 02:57:59;;;;;;;13.23;6.05;;;18.40;99.90;;;;;;2087666;28;20427;-74
2021/09/09 02:59:00;;;;;;;14.52;6.10;;;18.40;99.90;;;;;;2087397;28;20604;-74
2021/09/09 03:00:01;;;;;;;8.20;5.90;;;18.40;99.90;;;;;;2087948;28;20083;-71
2021/09/09 03:01:01;;;;;;;11.40;6.07;;;18.40;99.90;;;;;;2087442;28;20392;-72
2021/09/09 03:02:03;;;;;;;14.55;6.45;;;18.40;99.90;;;;;;2088686;28;20033;-73
2021/09/09 03:03:04;;;;;;;12.18;6.43;;;18.40;99.90;;;;;;2081183;28;20013;-72
2021/09/09 03:04:05;;;;;;;13.90;6.43;;;18.40;99.90;;;;;;2087203;28;20030;-72
2021/09/09 03:05:07;;;;;;;12.15;6.25;;;18.50;99.90;;;;;;2089915;28;20013;-73
2021/09/09 03:06:08;;;;;;;12.25;6.35;;;18.50;99.90;;;;;;2089213;28;20033;-74
2021/09/09 03:07:09;;;;;;;9.65;6.05;;;18.40;99.90;;;;;;2090103;28;20411;-73
2021/09/09 03:08:10;;;;;;;13.32;6.15;;;18.40;99.90;;;;;;2089649;28;20028;-71
2021/09/09 03:09:10;;;;;;;13.07;6.28;;;18.40;99.90;;;;;;2089557;28;20025;-72
2021/09/09 03:10:11;;;;;;;11.93;5.60;;;18.50;99.90;;;;;;2089757;28;20071;-71
2021/09/09 03:11:12;;;;;;;10.95;6.10;;;18.40;99.90;;;;;;2087614;28;20097;-72
2021/09/09 03:12:12;;;;;;;12.70;6.07;;;18.50;99.90;;;;;;2089132;28;20120;-71
2021/09/09 03:13:13;;;;;;;10.95;5.60;;;18.40;99.90;;;;;;2088708;28;20027;-72
2021/09/09 03:14:14;;;;;;;14.75;6.90;;;18.40;99.90;;;;;;2088620;28;20029;-70
2021/09/09 03:15:14;;;;;;;14.73;6.35;;;18.50;99.90;;;;;;2089102;28;20400;-72
2021/09/09 03:16:15;;;;;;;13.80;6.20;;;18.50;99.90;;;;;;2089577;28;20056;-72
2021/09/09 03:17:16;;;;;;;14.65;6.43;;;18.50;99.90;;;;;;2089786;28;20074;-73
2021/09/09 03:18:16;;;;;;;11.60;5.45;;;18.50;99.90;;;;;;2084778;28;20039;-72
2021/09/09 03:19:17;;;;;;;12.43;5.35;;;18.50;99.90;;;;;;2083464;28;20018;-71
2021/09/09 03:20:18;;;;;;;8.82;5.18;;;18.50;99.90;;;;;;2088823;28;20021;-72
2021/09/09 03:21:18;;;;;;;13.15;5.75;;;18.50;99.90;;;;;;2076852;28;20034;-72
2021/09/09 03:22:19;;;;;;;12.45;5.43;;;18.50;99.90;;;;;;2088712;28;20119;-71
2021/09/09 03:23:20;;;;;;;9.80;5.25;;;18.50;99.90;;;;;;2097472;28;20032;-72
2021/09/09 03:24:21;;;;;;;14.13;5.63;;;18.50;99.90;;;;;;2097319;28;20031;-71
2021/09/09 03:25:22;;;;;;;12.88;5.18;;;18.50;99.90;;;;;;2086310;28;20291;-71
2021/09/09 03:26:22;;;;;;;12.45;5.85;;;18.50;99.90;;;;;;2089785;28;20033;-72
2021/09/09 03:27:23;;;;;;;15.15;5.53;;;18.50;99.90;;;;;;2094719;28;20029;-71
2021/09/09 03:28:24;;;;;;;9.55;4.82;;;18.50;99.90;;;;;;2095264;28;20024;-73
2021/09/09 03:29:24;;;;;;;10.50;5.05;;;18.50;99.90;;;;;;2089865;28;20025;-70
2021/09/09 03:30:26;;;;;;;10.75;5.03;;;18.50;99.90;;;;;;2089488;28;20021;-72
2021/09/09 03:31:26;;;;;;;10.75;4.90;;;18.50;99.90;;;;;;2080518;28;20033;-71
2021/09/09 03:32:27;;;;;;;7.40;4.43;;;18.50;99.90;;;;;;2086883;28;20040;-71
2021/09/09 03:33:28;;;;;;;9.27;4.65;;;18.50;99.90;;;;;;2088775;28;20759;-71
2021/09/09 03:34:29;;;;;;;9.93;4.53;;;18.50;99.90;;;;;;2089609;28;20048;-71
2021/09/09 03:35:29;;;;;;;7.63;4.18;;;18.50;99.90;;;;;;2086637;28;20044;-72
2021/09/09 03:36:30;;;;;;;10.25;4.45;;;18.40;99.90;;;;;;2081391;28;20033;-73
2021/09/09 03:37:31;;;;;;;13.45;4.40;;;18.40;99.90;;;;;;2087930;28;20031;-72
2021/09/09 03:38:31;;;;;;;7.72;4.35;;;18.40;99.90;;;;;;2089399;28;20032;-72
2021/09/09 03:39:32;;;;;;;8.95;4.00;;;18.30;99.90;;;;;;2085810;28;20032;-72
2021/09/09 03:40:33;;;;;;;13.57;4.40;;;18.30;99.90;;;;;;2085749;28;20049;-74
2021/09/09 03:41:34;;;;;;;10.82;4.75;;;18.30;99.90;;;;;;2082386;28;20025;-71
2021/09/09 03:42:35;;;;;;;11.52;4.50;;;18.30;99.90;;;;;;2087583;28;20067;-72
2021/09/09 03:43:35;;;;;;;11.05;4.72;;;18.30;99.90;;;;;;2088243;28;20496;-72
2021/09/09 03:44:36;;;;;;;11.98;4.75;;;18.30;99.90;;;;;;2088432;28;20025;-73
2021/09/09 03:45:37;;;;;;;10.52;4.35;;;18.20;99.90;;;;;;2085733;28;20049;-72
2021/09/09 03:46:38;;;;;;;10.75;4.18;;;18.20;99.90;;;;;;2081365;28;20049;-73
2021/09/09 03:47:38;;;;;;;11.13;4.65;;;18.20;99.90;;;;;;2084482;28;20551;-72
2021/09/09 03:48:39;;;;;;;12.13;4.55;;;18.20;99.90;;;;;;2083097;28;20047;-72
2021/09/09 03:49:40;;;;;;;8.60;4.43;;;18.20;99.90;;;;;;2091043;28;20028;-72
2021/09/09 03:50:40;;;;;;;7.35;4.50;;;18.20;99.90;;;;;;2090827;28;20519;-72
2021/09/09 03:51:41;;;;;;;9.45;4.78;;;18.20;99.90;;;;;;2091273;28;20029;-73
2021/09/09 03:52:42;;;;;;;13.90;5.47;;;18.20;99.90;;;;;;2090715;28;20048;-71
2021/09/09 03:53:42;;;;;;;11.55;4.82;;;18.20;99.90;;;;;;2089703;28;20634;-73
2021/09/09 03:54:43;;;;;;;12.52;4.32;;;18.20;99.90;;;;;;2085248;28;20433;-72
2021/09/09 03:55:44;;;;;;;9.98;5.07;;;18.20;99.90;;;;;;2086062;28;20120;-73
2021/09/09 03:56:44;;;;;;;11.13;4.78;;;18.20;99.90;;;;;;2086565;28;20026;-73
2021/09/09 03:57:47;;;;;;;8.68;4.85;;;18.20;99.90;;;;;;2087501;28;20431;-72
2021/09/09 03:58:48;;;;;;;13.77;5.13;;;18.20;99.90;;;;;;2090091;28;20021;-72
2021/09/09 03:59:49;;;;;;;11.05;4.90;;;18.20;99.90;;;;;;2089797;28;20104;-72
2021/09/09 04:00:50;;;;;;;15.13;5.57;;;18.20;99.90;;;;;;2085997;28;20021;-73
2021/09/09 04:01:51;;;;;;;10.25;5.10;;;18.20;99.90;;;;;;2087492;28;20416;-73
2021/09/09 04:02:51;;;;;;;8.13;4.97;;;18.20;99.90;;;;;;2090433;28;20083;-72
2021/09/09 04:03:52;;;;;;;7.00;4.93;;;18.20;99.90;;;;;;2088669;28;20224;-72
2021/09/09 04:04:53;;;;;;;15.43;4.90;;;18.20;99.90;;;;;;2083092;28;20022;-73
2021/09/09 04:05:53;;;;;;;7.95;4.72;;;18.20;99.90;;;;;;2089331;28;20116;-72
2021/09/09 04:06:54;;;;;;;12.43;5.40;;;18.20;99.90;;;;;;2091131;28;20013;-72
2021/09/09 04:07:55;;;;;;;9.95;4.78;;;18.30;99.90;;;;;;2089323;28;20043;-72
2021/09/09 04:08:55;;;;;;;8.48;4.78;;;18.30;99.90;;;;;;2090825;28;20423;-72
2021/09/09 04:09:56;;;;;;;13.18;4.90;;;18.20;99.90;;;;;;2089020;28;20104;-72
2021/09/09 04:10:57;;;;;;;10.95;4.80;;;18.20;99.90;;;;;;2087666;28;20088;-72
2021/09/09 04:11:58;;;;;;;12.05;5.55;;;18.20;99.90;;;;;;2098294;28;20035;-73
2021/09/09 04:12:59;;;;;;;8.10;4.97;;;18.20;99.90;;;;;;2103550;28;20782;-72
2021/09/09 04:13:59;;;;;;;10.23;5.00;;;18.20;99.90;;;;;;2091145;28;20105;-72
2021/09/09 04:15:02;;;;;;;12.85;5.18;;;18.20;99.90;;;;;;2088509;28;20029;-72
2021/09/09 04:16:03;;;;;;;12.50;5.82;;;18.20;99.90;;;;;;2090020;28;20503;-72
2021/09/09 04:17:04;;;;;;;9.65;5.20;;;18.20;99.90;;;;;;2090124;28;20028;-72
2021/09/09 04:18:04;;;;;;;14.02;5.20;;;18.20;99.90;;;;;;2088568;28;20417;-72
2021/09/09 04:19:05;;;;;;;11.10;5.32;;;18.20;99.90;;;;;;2090396;28;20025;-72
2021/09/09 04:20:07;;;;;;;12.40;5.57;;;18.20;99.90;;;;;;2090000;28;20048;-72
2021/09/09 04:21:07;;;;;;;12.55;4.93;;;18.20;99.90;;;;;;2085672;28;20095;-72
2021/09/09 04:22:09;;;;;;;11.80;5.00;;;18.20;99.90;;;;;;2090448;28;20081;-72
2021/09/09 04:23:10;;;;;;;13.95;5.38;;;18.20;99.90;;;;;;2089729;28;20666;-71
2021/09/09 04:24:11;;;;;;;10.77;5.63;;;18.20;99.90;;;;;;2090226;28;20033;-71
2021/09/09 04:25:12;;;;;;;16.65;4.88;;;18.20;99.90;;;;;;2086814;28;20026;-72
2021/09/09 04:26:12;;;;;;;13.68;5.55;;;18.20;99.90;;;;;;2082105;28;20513;-71
2021/09/09 04:27:13;;;;;;;13.00;5.80;;;18.20;99.90;;;;;;2096388;28;20047;-71
2021/09/09 04:28:14;;;;;;;15.00;5.57;;;18.20;99.90;;;;;;2097634;28;20028;-73
2021/09/09 04:29:15;;;;;;;13.55;5.10;;;18.20;99.90;;;;;;2082051;28;20025;-72
2021/09/09 04:30:15;;;;;;;16.10;5.55;;;18.20;99.90;;;;;;2085344;28;20021;-72
2021/09/09 04:31:16;;;;;;;9.38;5.18;;;18.20;99.90;;;;;;2084442;28;20497;-71
2021/09/09 04:32:18;;;;;;;15.68;5.95;;;18.20;99.90;;;;;;2081804;28;20394;-71
2021/09/09 04:33:19;;;;;;;8.15;4.75;;;18.20;99.90;;;;;;2082577;28;20440;-71
2021/09/09 04:34:20;;;;;;;8.38;5.03;;;18.20;99.90;;;;;;2082622;28;20087;-72
2021/09/09 04:35:21;;;;;;;9.02;5.50;;;18.20;99.90;;;;;;2097900;28;20016;-72
2021/09/09 04:36:21;;;;;;;12.80;5.20;;;18.20;99.90;;;;;;2097017;28;20028;-71
2021/09/09 04:37:22;;;;;;;11.65;5.60;;;18.20;99.90;;;;;;2082192;28;20017;-71
2021/09/09 04:38:23;;;;;;;13.90;5.82;;;18.30;99.90;;;;;;2082407;28;20026;-72
2021/09/09 04:39:24;;;;;;;11.65;5.90;;;18.30;99.90;;;;;;2090581;28;20749;-71
2021/09/09 04:40:24;;;;;;;12.80;5.65;;;18.20;99.90;;;;;;2086265;28;20579;-71
2021/09/09 04:41:25;;;;;;;8.77;5.13;;;18.20;99.90;;;;;;2089804;28;20021;-71
2021/09/09 04:42:26;;;;;;;12.98;5.30;;;18.30;99.90;;;;;;2084173;28;20021;-71
2021/09/09 04:43:26;;;;;;;8.23;5.05;;;18.30;99.90;;;;;;2081713;28;20045;-73
2021/09/09 04:44:27;;;;;;;9.25;5.20;;;18.30;99.90;;;;;;2083135;28;20025;-72
2021/09/09 04:45:28;;;;;;;8.15;5.18;;;18.30;99.90;;;;;;2082366;28;20064;-72
2021/09/09 04:46:29;;;;;;;8.10;4.93;;;18.20;99.90;;;;;;2082314;28;20033;-73
2021/09/09 04:47:29;;;;;;;12.57;5.15;;;18.30;99.90;;;;;;2086624;28;20043;-73
2021/09/09 04:48:30;;;;;;;9.00;5.28;;;18.20;99.90;;;;;;2087007;28;20039;-73
2021/09/09 04:49:31;;;;;;;10.30;5.00;;;18.20;99.90;;;;;;2084835;28;20032;-71
2021/09/09 04:50:31;;;;;;;8.77;4.70;;;18.30;99.90;;;;;;2082422;28;20030;-72
2021/09/09 04:51:32;;;;;;;8.02;4.70;;;18.30;99.90;;;;;;2082007;28;20026;-72
2021/09/09 04:52:33;;;;;;;11.95;5.47;;;18.30;99.90;;;;;;2081667;28;20029;-72
2021/09/09 04:53:33;;;;;;;9.55;5.10;;;18.30;99.90;;;;;;2082366;28;20025;-72
2021/09/09 04:54:34;;;;;;;8.90;4.10;;;18.30;99.90;;;;;;2081893;28;20460;-73
2021/09/09 04:55:35;;;;;;;12.85;5.53;;;18.30;99.90;;;;;;2083757;28;20026;-72
2021/09/09 04:56:35;;;;;;;10.68;4.50;;;18.30;99.90;;;;;;2088040;28;20064;-72
2021/09/09 04:57:36;;;;;;;9.25;5.00;;;18.30;99.90;;;;;;2086384;28;20025;-72
2021/09/09 04:58:37;;;;;;;14.07;5.07;;;18.30;99.90;;;;;;2090314;28;20029;-72
2021/09/09 04:59:38;;;;;;;9.23;5.00;;;18.30;99.90;;;;;;2089544;28;20024;-73
2021/09/09 05:00:38;;;;;;;8.45;4.32;;;18.30;99.90;;;;;;2090577;28;20685;-72
2021/09/09 05:01:39;;;;;;;8.45;4.22;;;18.30;99.90;;;;;;2086699;28;20045;-73
2021/09/09 05:02:40;;;;;;;7.95;4.80;;;18.20;99.90;;;;;;2085200;28;20612;-72
2021/09/09 05:03:40;;;;;;;8.90;4.90;;;18.20;99.90;;;;;;2084629;28;20059;-72
2021/09/09 05:04:41;;;;;;;13.88;5.15;;;18.20;99.90;;;;;;2088779;28;20017;-72
2021/09/09 05:05:42;;;;;;;12.05;5.93;;;18.20;99.90;;;;;;2090266;28;20028;-72
2021/09/09 05:06:42;;;;;;;12.48;5.10;;;18.20;99.90;;;;;;2088492;28;20021;-72
2021/09/09 05:07:43;;;;;;;13.32;4.88;;;18.20;99.90;;;;;;2085422;28;20121;-72
2021/09/09 05:08:44;;;;;;;11.40;4.70;;;18.20;99.90;;;;;;2081506;28;20025;-72
2021/09/09 05:09:44;;;;;;;11.88;5.15;;;18.20;99.90;;;;;;2087889;28;20035;-71
2021/09/09 05:10:45;;;;;;;13.27;5.53;;;18.20;99.90;;;;;;2090306;28;20025;-72
2021/09/09 05:11:46;;;;;;;13.48;5.63;;;18.20;99.90;;;;;;2089488;28;20025;-72
2021/09/09 05:12:46;;;;;;;11.27;5.15;;;18.20;99.90;;;;;;2087221;28;20029;-72
2021/09/09 05:13:47;;;;;;;7.18;4.38;;;18.30;99.90;;;;;;2082559;28;20017;-73
2021/09/09 05:14:48;;;;;;;12.23;5.30;;;18.20;99.90;;;;;;2088908;28;20029;-72